sensor_id;sensor_type;location;lat;lon;timestamp;temperature;humidity
51853;DHT22;37894;53.172;6.598;2022-12-29T00:02:19;10.30;99.90
51853;DHT22;37894;53.172;6.598;2022-12-29T00:04:45;10.30;99.90
51853;DHT22;37894;53.172;6.598;2022-12-29T00:07:11;10.30;99.90
51853;DHT22;37894;53.172;6.598;2022-12-29T00:09:37;9.10;99.90
51853;DHT22;37894;53.172;6.598;2022-12-29T00:12:03;10.20;99.90
51853;DHT22;37894;53.172;6.598;2022-12-29T00:14:29;10.20;99.90
51853;DHT22;37894;53.172;6.598;2022-12-29T00:17:14;10.30;99.90
51853;DHT22;37894;53.172;6.598;2022-12-29T00:19:40;10.20;99.90
51853;DHT22;37894;53.172;6.598;2022-12-29T00:22:24;10.20;99.90
51853;DHT22;37894;53.172;6.598;2022-12-29T00:25:10;10.10;99.90
51853;DHT22;37894;53.172;6.598;2022-12-29T00:27:55;10.60;99.90
51853;DHT22;37894;53.172;6.598;2022-12-29T00:30:39;10.20;99.90
51853;DHT22;37894;53.172;6.598;2022-12-29T00:33:28;10.90;99.90
51853;DHT22;37894;53.172;6.598;2022-12-29T00:36:19;10.30;99.90
51853;DHT22;37894;53.172;6.598;2022-12-29T00:38:51;10.20;99.90
51853;DHT22;37894;53.172;6.598;2022-12-29T00:41:36;10.40;99.90
51853;DHT22;37894;53.172;6.598;2022-12-29T00:44:21;10.10;99.90
51853;DHT22;37894;53.172;6.598;2022-12-29T00:46:46;10.30;99.90
51853;DHT22;37894;53.172;6.598;2022-12-29T00:49:13;10.10;99.90
51853;DHT22;37894;53.172;6.598;2022-12-29T00:52:03;10.40;99.90
51853;DHT22;37894;53.172;6.598;2022-12-29T00:54:32;10.30;99.90
51853;DHT22;37894;53.172;6.598;2022-12-29T00:56:58;10.50;99.90
51853;DHT22;37894;53.172;6.598;2022-12-29T00:59:24;11.40;99.90
51853;DHT22;37894;53.172;6.598;2022-12-29T01:01:51;10.30;99.90
51853;DHT22;37894;53.172;6.598;2022-12-29T01:04:18;10.50;99.90
51853;DHT22;37894;53.172;6.598;2022-12-29T01:06:43;10.60;99.90
51853;DHT22;37894;53.172;6.598;2022-12-29T01:09:09;10.40;99.90
51853;DHT22;37894;53.172;6.598;2022-12-29T01:11:54;10.80;99.90
51853;DHT22;37894;53.172;6.598;2022-12-29T01:14:20;10.70;99.90
51853;DHT22;37894;53.172;6.598;2022-12-29T01:16:47;10.60;99.90
51853;DHT22;37894;53.172;6.598;2022-12-29T01:19:14;10.60;99.90
51853;DHT22;37894;53.172;6.598;2022-12-29T01:21:40;10.60;99.90
51853;DHT22;37894;53.172;6.598;2022-12-29T01:24:06;10.90;99.90
51853;DHT22;37894;53.172;6.598;2022-12-29T01:26:32;10.60;99.90
51853;DHT22;37894;53.172;6.598;2022-12-29T01:28:58;10.70;99.90
51853;DHT22;37894;53.172;6.598;2022-12-29T01:31:24;10.90;99.90
51853;DHT22;37894;53.172;6.598;2022-12-29T01:33:49;10.70;99.90
51853;DHT22;37894;53.172;6.598;2022-12-29T01:36:17;10.60;99.90
51853;DHT22;37894;53.172;6.598;2022-12-29T01:38:43;10.60;99.90
51853;DHT22;37894;53.172;6.598;2022-12-29T01:41:11;10.60;99.90
51853;DHT22;37894;53.172;6.598;2022-12-29T01:43:58;10.50;99.90
51853;DHT22;37894;53.172;6.598;2022-12-29T01:46:44;10.60;99.90
51853;DHT22;37894;53.172;6.598;2022-12-29T01:49:15;10.50;99.90
51853;DHT22;37894;53.172;6.598;2022-12-29T01:51:49;10.00;99.90
51853;DHT22;37894;53.172;6.598;2022-12-29T01:54:29;10.50;99.90
51853;DHT22;37894;53.172;6.598;2022-12-29T01:57:00;9.90;99.90
51853;DHT22;37894;53.172;6.598;2022-12-29T01:59:41;10.10;99.90
51853;DHT22;37894;53.172;6.598;2022-12-29T02:02:08;10.50;99.90
51853;DHT22;37894;53.172;6.598;2022-12-29T02:04:35;10.30;99.90
51853;DHT22;37894;53.172;6.598;2022-12-29T02:07:09;10.30;99.90
51853;DHT22;37894;53.172;6.598;2022-12-29T02:09:37;10.20;99.90
51853;DHT22;37894;53.172;6.598;2022-12-29T02:12:03;10.10;99.90
51853;DHT22;37894;53.172;6.598;2022-12-29T02:14:29;10.20;99.90
51853;DHT22;37894;53.172;6.598;2022-12-29T02:30:58;10.40;99.90
51853;DHT22;37894;53.172;6.598;2022-12-29T02:33:43;10.60;99.90
51853;DHT22;37894;53.172;6.598;2022-12-29T02:38:59;10.40;99.90
51853;DHT22;37894;53.172;6.598;2022-12-29T02:41:42;10.40;99.90
51853;DHT22;37894;53.172;6.598;2022-12-29T02:44:12;10.90;99.90
51853;DHT22;37894;53.172;6.598;2022-12-29T02:47:00;10.40;99.90
51853;DHT22;37894;53.172;6.598;2022-12-29T02:49:38;10.40;99.90
51853;DHT22;37894;53.172;6.598;2022-12-29T02:52:22;10.50;99.90
51853;DHT22;37894;53.172;6.598;2022-12-29T02:54:50;10.50;99.90
51853;DHT22;37894;53.172;6.598;2022-12-29T03:00:10;10.30;99.90
51853;DHT22;37894;53.172;6.598;2022-12-29T03:08:35;10.40;99.90
51853;DHT22;37894;53.172;6.598;2022-12-29T03:11:11;10.40;99.90
51853;DHT22;37894;53.172;6.598;2022-12-29T03:14:10;11.00;99.90
51853;DHT22;37894;53.172;6.598;2022-12-29T03:17:08;10.10;99.90
51853;DHT22;37894;53.172;6.598;2022-12-29T03:19:40;10.10;99.90
51853;DHT22;37894;53.172;6.598;2022-12-29T03:22:13;10.30;99.90
51853;DHT22;37894;53.172;6.598;2022-12-29T03:25:18;10.30;99.90
51853;DHT22;37894;53.172;6.598;2022-12-29T03:27:50;10.30;99.90
51853;DHT22;37894;53.172;6.598;2022-12-29T03:30:18;10.30;99.90
51853;DHT22;37894;53.172;6.598;2022-12-29T03:32:50;10.30;99.90
51853;DHT22;37894;53.172;6.598;2022-12-29T03:35:22;9.80;99.90
51853;DHT22;37894;53.172;6.598;2022-12-29T03:40:28;10.30;99.90
51853;DHT22;37894;53.172;6.598;2022-12-29T03:42:57;10.50;99.90
51853;DHT22;37894;53.172;6.598;2022-12-29T03:45:23;10.20;99.90
51853;DHT22;37894;53.172;6.598;2022-12-29T03:47:48;10.50;99.90
51853;DHT22;37894;53.172;6.598;2022-12-29T03:50:14;10.20;99.90
51853;DHT22;37894;53.172;6.598;2022-12-29T03:52:40;10.10;99.90
51853;DHT22;37894;53.172;6.598;2022-12-29T03:55:06;10.20;99.90
51853;DHT22;37894;53.172;6.598;2022-12-29T03:57:32;10.20;99.90
51853;DHT22;37894;53.172;6.598;2022-12-29T03:59:58;9.90;99.90
51853;DHT22;37894;53.172;6.598;2022-12-29T04:02:23;10.10;99.90
51853;DHT22;37894;53.172;6.598;2022-12-29T04:04:49;10.20;99.90
51853;DHT22;37894;53.172;6.598;2022-12-29T04:07:15;10.00;99.90
51853;DHT22;37894;53.172;6.598;2022-12-29T04:09:40;10.10;99.90
51853;DHT22;37894;53.172;6.598;2022-12-29T04:12:06;10.60;99.90
51853;DHT22;37894;53.172;6.598;2022-12-29T04:14:32;10.30;99.90
51853;DHT22;37894;53.172;6.598;2022-12-29T04:16:57;11.40;99.90
51853;DHT22;37894;53.172;6.598;2022-12-29T04:19:23;10.10;99.90
51853;DHT22;37894;53.172;6.598;2022-12-29T04:21:49;10.40;99.90
51853;DHT22;37894;53.172;6.598;2022-12-29T04:26:41;9.00;99.90
51853;DHT22;37894;53.172;6.598;2022-12-29T04:29:07;10.30;99.90
51853;DHT22;37894;53.172;6.598;2022-12-29T04:31:33;10.20;99.90
51853;DHT22;37894;53.172;6.598;2022-12-29T04:33:58;13.50;99.90
51853;DHT22;37894;53.172;6.598;2022-12-29T04:36:25;10.40;99.90
51853;DHT22;37894;53.172;6.598;2022-12-29T04:38:51;10.30;99.90
51853;DHT22;37894;53.172;6.598;2022-12-29T04:41:17;10.10;99.90
51853;DHT22;37894;53.172;6.598;2022-12-29T04:46:09;10.80;99.90
51853;DHT22;37894;53.172;6.598;2022-12-29T04:48:34;10.30;99.90
51853;DHT22;37894;53.172;6.598;2022-12-29T04:51:00;10.20;99.90
51853;DHT22;37894;53.172;6.598;2022-12-29T04:53:26;9.80;99.90
51853;DHT22;37894;53.172;6.598;2022-12-29T04:55:52;10.30;99.90
51853;DHT22;37894;53.172;6.598;2022-12-29T04:58:19;10.40;99.90
51853;DHT22;37894;53.172;6.598;2022-12-29T05:00:45;10.50;99.90
51853;DHT22;37894;53.172;6.598;2022-12-29T05:03:10;10.20;99.90
51853;DHT22;37894;53.172;6.598;2022-12-29T05:05:36;10.40;99.90
51853;DHT22;37894;53.172;6.598;2022-12-29T05:08:02;10.20;99.90
51853;DHT22;37894;53.172;6.598;2022-12-29T05:12:54;10.20;99.90
51853;DHT22;37894;53.172;6.598;2022-12-29T05:15:20;10.10;99.90
51853;DHT22;37894;53.172;6.598;2022-12-29T05:17:45;9.80;99.90
51853;DHT22;37894;53.172;6.598;2022-12-29T05:20:11;10.10;99.90
51853;DHT22;37894;53.172;6.598;2022-12-29T05:22:37;10.00;99.90
51853;DHT22;37894;53.172;6.598;2022-12-29T05:25:03;9.80;99.90
51853;DHT22;37894;53.172;6.598;2022-12-29T05:27:29;10.00;99.90
51853;DHT22;37894;53.172;6.598;2022-12-29T05:29:54;9.80;99.90
51853;DHT22;37894;53.172;6.598;2022-12-29T05:32:20;10.00;99.90
51853;DHT22;37894;53.172;6.598;2022-12-29T05:34:46;9.70;99.90
51853;DHT22;37894;53.172;6.598;2022-12-29T05:37:12;9.80;99.90
51853;DHT22;37894;53.172;6.598;2022-12-29T05:39:37;9.70;99.90
51853;DHT22;37894;53.172;6.598;2022-12-29T05:42:03;9.80;99.90
51853;DHT22;37894;53.172;6.598;2022-12-29T05:44:29;10.00;99.90
51853;DHT22;37894;53.172;6.598;2022-12-29T05:46:54;9.90;99.90
51853;DHT22;37894;53.172;6.598;2022-12-29T05:49:20;9.70;99.90
51853;DHT22;37894;53.172;6.598;2022-12-29T05:51:46;9.80;99.90
51853;DHT22;37894;53.172;6.598;2022-12-29T05:54:11;9.70;99.90
51853;DHT22;37894;53.172;6.598;2022-12-29T05:56:37;9.70;99.90
51853;DHT22;37894;53.172;6.598;2022-12-29T05:59:03;9.60;99.90
51853;DHT22;37894;53.172;6.598;2022-12-29T06:01:29;9.10;99.90
51853;DHT22;37894;53.172;6.598;2022-12-29T06:03:54;9.70;99.90
51853;DHT22;37894;53.172;6.598;2022-12-29T06:06:20;9.70;99.90
51853;DHT22;37894;53.172;6.598;2022-12-29T06:08:46;9.90;99.90
51853;DHT22;37894;53.172;6.598;2022-12-29T06:11:11;9.70;99.90
51853;DHT22;37894;53.172;6.598;2022-12-29T06:13:37;9.70;99.90
51853;DHT22;37894;53.172;6.598;2022-12-29T06:16:03;9.70;99.90
51853;DHT22;37894;53.172;6.598;2022-12-29T06:18:29;9.70;99.90
51853;DHT22;37894;53.172;6.598;2022-12-29T06:21:00;9.90;99.90
51853;DHT22;37894;53.172;6.598;2022-12-29T06:23:26;9.70;99.90
51853;DHT22;37894;53.172;6.598;2022-12-29T06:25:51;9.70;99.90
51853;DHT22;37894;53.172;6.598;2022-12-29T06:28:17;9.70;99.90
51853;DHT22;37894;53.172;6.598;2022-12-29T06:30:44;9.70;99.90
51853;DHT22;37894;53.172;6.598;2022-12-29T06:33:11;9.60;99.90
51853;DHT22;37894;53.172;6.598;2022-12-29T06:35:37;9.90;99.90
51853;DHT22;37894;53.172;6.598;2022-12-29T06:38:03;9.50;99.90
51853;DHT22;37894;53.172;6.598;2022-12-29T06:40:29;9.70;99.90
51853;DHT22;37894;53.172;6.598;2022-12-29T06:42:55;9.40;99.90
51853;DHT22;37894;53.172;6.598;2022-12-29T06:45:21;9.30;99.90
51853;DHT22;37894;53.172;6.598;2022-12-29T06:47:46;9.40;99.90
51853;DHT22;37894;53.172;6.598;2022-12-29T06:50:12;9.50;99.90
51853;DHT22;37894;53.172;6.598;2022-12-29T06:52:38;10.20;99.90
51853;DHT22;37894;53.172;6.598;2022-12-29T06:55:04;9.60;99.90
51853;DHT22;37894;53.172;6.598;2022-12-29T06:57:30;9.40;99.90
51853;DHT22;37894;53.172;6.598;2022-12-29T06:59:55;9.60;99.90
51853;DHT22;37894;53.172;6.598;2022-12-29T07:02:22;8.70;99.90
51853;DHT22;37894;53.172;6.598;2022-12-29T07:04:47;9.40;99.90
51853;DHT22;37894;53.172;6.598;2022-12-29T07:07:13;9.60;99.90
51853;DHT22;37894;53.172;6.598;2022-12-29T07:09:39;10.10;99.90
51853;DHT22;37894;53.172;6.598;2022-12-29T07:12:05;9.60;99.90
51853;DHT22;37894;53.172;6.598;2022-12-29T07:14:31;9.30;99.90
51853;DHT22;37894;53.172;6.598;2022-12-29T07:16:57;9.60;99.90
51853;DHT22;37894;53.172;6.598;2022-12-29T07:19:23;9.40;99.90
51853;DHT22;37894;53.172;6.598;2022-12-29T07:21:48;9.50;99.90
51853;DHT22;37894;53.172;6.598;2022-12-29T07:24:14;9.60;99.90
51853;DHT22;37894;53.172;6.598;2022-12-29T07:26:39;9.50;99.90
51853;DHT22;37894;53.172;6.598;2022-12-29T07:29:06;9.60;99.90
51853;DHT22;37894;53.172;6.598;2022-12-29T07:31:32;9.30;99.90
51853;DHT22;37894;53.172;6.598;2022-12-29T07:33:57;9.40;99.90
51853;DHT22;37894;53.172;6.598;2022-12-29T07:36:23;10.60;99.90
51853;DHT22;37894;53.172;6.598;2022-12-29T07:38:49;9.70;99.90
51853;DHT22;37894;53.172;6.598;2022-12-29T07:41:14;9.60;99.90
51853;DHT22;37894;53.172;6.598;2022-12-29T07:43:40;9.70;99.90
51853;DHT22;37894;53.172;6.598;2022-12-29T07:46:06;8.90;99.90
51853;DHT22;37894;53.172;6.598;2022-12-29T07:48:32;9.70;99.90
51853;DHT22;37894;53.172;6.598;2022-12-29T07:51:01;9.60;99.90
51853;DHT22;37894;53.172;6.598;2022-12-29T07:53:27;9.70;99.90
51853;DHT22;37894;53.172;6.598;2022-12-29T07:55:52;9.70;99.90
51853;DHT22;37894;53.172;6.598;2022-12-29T07:58:18;9.30;99.90
51853;DHT22;37894;53.172;6.598;2022-12-29T08:00:44;9.50;99.90
51853;DHT22;37894;53.172;6.598;2022-12-29T08:03:09;9.70;99.90
51853;DHT22;37894;53.172;6.598;2022-12-29T08:05:35;9.60;99.90
51853;DHT22;37894;53.172;6.598;2022-12-29T08:08:01;9.70;99.90
51853;DHT22;37894;53.172;6.598;2022-12-29T08:10:27;9.70;99.90
51853;DHT22;37894;53.172;6.598;2022-12-29T08:12:52;9.50;99.90
51853;DHT22;37894;53.172;6.598;2022-12-29T08:15:18;9.70;99.90
51853;DHT22;37894;53.172;6.598;2022-12-29T08:17:44;9.80;99.90
51853;DHT22;37894;53.172;6.598;2022-12-29T08:20:09;9.80;99.90
51853;DHT22;37894;53.172;6.598;2022-12-29T08:22:35;9.70;99.90
51853;DHT22;37894;53.172;6.598;2022-12-29T08:25:01;10.00;99.90
51853;DHT22;37894;53.172;6.598;2022-12-29T08:27:27;9.80;99.90
51853;DHT22;37894;53.172;6.598;2022-12-29T08:29:53;9.70;99.90
51853;DHT22;37894;53.172;6.598;2022-12-29T08:32:18;9.70;99.90
51853;DHT22;37894;53.172;6.598;2022-12-29T08:34:44;9.70;99.90
51853;DHT22;37894;53.172;6.598;2022-12-29T08:37:10;9.90;99.90
51853;DHT22;37894;53.172;6.598;2022-12-29T08:39:36;9.70;99.90
51853;DHT22;37894;53.172;6.598;2022-12-29T08:42:02;9.80;99.90
51853;DHT22;37894;53.172;6.598;2022-12-29T08:44:27;9.70;99.90
51853;DHT22;37894;53.172;6.598;2022-12-29T08:46:53;9.40;99.90
51853;DHT22;37894;53.172;6.598;2022-12-29T08:49:19;9.20;99.90
51853;DHT22;37894;53.172;6.598;2022-12-29T08:51:45;9.40;99.90
51853;DHT22;37894;53.172;6.598;2022-12-29T08:56:36;8.70;99.90
51853;DHT22;37894;53.172;6.598;2022-12-29T08:59:02;9.30;99.90
51853;DHT22;37894;53.172;6.598;2022-12-29T09:01:28;9.30;99.90
51853;DHT22;37894;53.172;6.598;2022-12-29T09:03:55;9.20;99.90
51853;DHT22;37894;53.172;6.598;2022-12-29T09:06:21;9.20;99.90
51853;DHT22;37894;53.172;6.598;2022-12-29T09:08:47;8.90;99.90
51853;DHT22;37894;53.172;6.598;2022-12-29T09:11:19;9.30;99.90
51853;DHT22;37894;53.172;6.598;2022-12-29T09:13:45;9.20;99.90
51853;DHT22;37894;53.172;6.598;2022-12-29T09:16:11;9.30;99.90
51853;DHT22;37894;53.172;6.598;2022-12-29T09:18:38;9.00;99.90
51853;DHT22;37894;53.172;6.598;2022-12-29T09:21:05;9.10;99.90
51853;DHT22;37894;53.172;6.598;2022-12-29T09:23:31;9.20;99.90
51853;DHT22;37894;53.172;6.598;2022-12-29T09:25:57;9.10;99.90
51853;DHT22;37894;53.172;6.598;2022-12-29T09:28:26;9.00;99.90
51853;DHT22;37894;53.172;6.598;2022-12-29T09:30:55;8.80;99.90
51853;DHT22;37894;53.172;6.598;2022-12-29T09:33:20;9.20;99.90
51853;DHT22;37894;53.172;6.598;2022-12-29T09:35:55;9.20;99.90
51853;DHT22;37894;53.172;6.598;2022-12-29T09:38:21;9.00;99.90
51853;DHT22;37894;53.172;6.598;2022-12-29T09:40:56;8.90;99.90
51853;DHT22;37894;53.172;6.598;2022-12-29T09:43:51;9.30;99.90
51853;DHT22;37894;53.172;6.598;2022-12-29T09:51:41;8.90;99.90
51853;DHT22;37894;53.172;6.598;2022-12-29T09:54:24;9.40;99.90
51853;DHT22;37894;53.172;6.598;2022-12-29T09:56:52;10.20;99.90
51853;DHT22;37894;53.172;6.598;2022-12-29T09:59:21;9.30;99.90
51853;DHT22;37894;53.172;6.598;2022-12-29T10:02:01;9.20;99.90
51853;DHT22;37894;53.172;6.598;2022-12-29T10:04:29;9.30;99.90
51853;DHT22;37894;53.172;6.598;2022-12-29T10:07:20;10.20;99.90
51853;DHT22;37894;53.172;6.598;2022-12-29T10:12:53;8.60;99.90
51853;DHT22;37894;53.172;6.598;2022-12-29T10:15:43;9.40;99.90
51853;DHT22;37894;53.172;6.598;2022-12-29T10:23:35;8.50;99.90
51853;DHT22;37894;53.172;6.598;2022-12-29T10:26:02;8.90;99.90
51853;DHT22;37894;53.172;6.598;2022-12-29T10:28:38;8.90;99.90
51853;DHT22;37894;53.172;6.598;2022-12-29T10:31:16;8.90;99.90
51853;DHT22;37894;53.172;6.598;2022-12-29T10:33:53;9.00;99.90
51853;DHT22;37894;53.172;6.598;2022-12-29T10:36:39;8.70;99.90
51853;DHT22;37894;53.172;6.598;2022-12-29T10:42:09;8.60;99.90
51853;DHT22;37894;53.172;6.598;2022-12-29T10:44:36;8.80;99.90
51853;DHT22;37894;53.172;6.598;2022-12-29T10:47:11;9.10;99.90
51853;DHT22;37894;53.172;6.598;2022-12-29T10:49:41;8.70;99.90
51853;DHT22;37894;53.172;6.598;2022-12-29T10:52:10;8.50;99.90
51853;DHT22;37894;53.172;6.598;2022-12-29T10:54:51;8.50;99.90
51853;DHT22;37894;53.172;6.598;2022-12-29T10:57:51;8.70;99.90
51853;DHT22;37894;53.172;6.598;2022-12-29T11:00:21;8.50;99.90
51853;DHT22;37894;53.172;6.598;2022-12-29T11:08:23;8.60;99.90
51853;DHT22;37894;53.172;6.598;2022-12-29T11:11:02;8.50;99.90
51853;DHT22;37894;53.172;6.598;2022-12-29T11:13:30;8.60;99.90
51853;DHT22;37894;53.172;6.598;2022-12-29T11:15:56;8.60;99.90
51853;DHT22;37894;53.172;6.598;2022-12-29T11:18:36;9.00;99.90
51853;DHT22;37894;53.172;6.598;2022-12-29T11:21:05;8.90;99.90
51853;DHT22;37894;53.172;6.598;2022-12-29T11:28:39;8.90;99.90
51853;DHT22;37894;53.172;6.598;2022-12-29T11:31:07;9.40;99.90
51853;DHT22;37894;53.172;6.598;2022-12-29T11:33:38;9.50;99.90
51853;DHT22;37894;53.172;6.598;2022-12-29T11:36:15;9.40;99.90
51853;DHT22;37894;53.172;6.598;2022-12-29T11:38:53;9.50;99.90
51853;DHT22;37894;53.172;6.598;2022-12-29T11:41:25;9.10;99.90
51853;DHT22;37894;53.172;6.598;2022-12-29T11:43:52;9.40;99.90
51853;DHT22;37894;53.172;6.598;2022-12-29T11:46:22;9.50;99.90
51853;DHT22;37894;53.172;6.598;2022-12-29T11:48:50;9.70;99.90
51853;DHT22;37894;53.172;6.598;2022-12-29T11:51:45;9.20;99.90
51853;DHT22;37894;53.172;6.598;2022-12-29T11:54:21;9.10;99.90
51853;DHT22;37894;53.172;6.598;2022-12-29T11:56:48;9.50;99.90
51853;DHT22;37894;53.172;6.598;2022-12-29T12:01:53;9.60;99.90
51853;DHT22;37894;53.172;6.598;2022-12-29T12:04:24;10.10;99.90
51853;DHT22;37894;53.172;6.598;2022-12-29T12:07:07;9.90;99.90
51853;DHT22;37894;53.172;6.598;2022-12-29T12:09:41;10.00;99.90
51853;DHT22;37894;53.172;6.598;2022-12-29T12:12:25;9.90;99.90
51853;DHT22;37894;53.172;6.598;2022-12-29T12:14:56;9.60;99.90
51853;DHT22;37894;53.172;6.598;2022-12-29T12:17:36;10.10;99.90
51853;DHT22;37894;53.172;6.598;2022-12-29T12:20:17;9.90;99.90
51853;DHT22;37894;53.172;6.598;2022-12-29T12:25:50;9.70;99.90
51853;DHT22;37894;53.172;6.598;2022-12-29T12:28:48;10.20;99.90
51853;DHT22;37894;53.172;6.598;2022-12-29T12:34:04;9.60;99.90
51853;DHT22;37894;53.172;6.598;2022-12-29T12:36:46;8.40;99.90
51853;DHT22;37894;53.172;6.598;2022-12-29T12:39:39;9.50;99.90
51853;DHT22;37894;53.172;6.598;2022-12-29T13:01:57;10.20;99.90
51853;DHT22;37894;53.172;6.598;2022-12-29T13:24:35;9.30;99.90
51853;DHT22;37894;53.172;6.598;2022-12-29T13:30:02;9.70;99.90
51853;DHT22;37894;53.172;6.598;2022-12-29T13:32:43;9.60;99.90
51853;DHT22;37894;53.172;6.598;2022-12-29T13:35:33;9.60;99.90
51853;DHT22;37894;53.172;6.598;2022-12-29T13:38:21;9.30;99.90
51853;DHT22;37894;53.172;6.598;2022-12-29T13:40:55;9.40;99.90
51853;DHT22;37894;53.172;6.598;2022-12-29T13:43:22;9.60;99.90
51853;DHT22;37894;53.172;6.598;2022-12-29T13:46:25;9.80;99.90
51853;DHT22;37894;53.172;6.598;2022-12-29T13:48:58;9.50;99.90
51853;DHT22;37894;53.172;6.598;2022-12-29T13:51:25;9.40;99.90
51853;DHT22;37894;53.172;6.598;2022-12-29T13:59:21;9.50;99.90
51853;DHT22;37894;53.172;6.598;2022-12-29T14:02:09;9.40;99.90
51853;DHT22;37894;53.172;6.598;2022-12-29T14:04:35;9.60;99.90
51853;DHT22;37894;53.172;6.598;2022-12-29T14:07:20;9.70;99.90
51853;DHT22;37894;53.172;6.598;2022-12-29T14:09:50;9.40;99.90
51853;DHT22;37894;53.172;6.598;2022-12-29T14:17:32;8.80;99.90
51853;DHT22;37894;53.172;6.598;2022-12-29T14:19:58;9.50;99.90
51853;DHT22;37894;53.172;6.598;2022-12-29T14:22:25;9.10;99.90
51853;DHT22;37894;53.172;6.598;2022-12-29T14:24:52;9.40;99.90
51853;DHT22;37894;53.172;6.598;2022-12-29T14:29:45;9.50;99.90
51853;DHT22;37894;53.172;6.598;2022-12-29T14:34:57;9.10;99.90
51853;DHT22;37894;53.172;6.598;2022-12-29T14:37:29;8.60;99.90
51853;DHT22;37894;53.172;6.598;2022-12-29T14:42:46;9.70;99.90
51853;DHT22;37894;53.172;6.598;2022-12-29T14:50:38;8.80;99.90
51853;DHT22;37894;53.172;6.598;2022-12-29T14:53:06;8.60;99.90
51853;DHT22;37894;53.172;6.598;2022-12-29T14:58:27;8.50;99.90
51853;DHT22;37894;53.172;6.598;2022-12-29T15:00:54;8.90;99.90
51853;DHT22;37894;53.172;6.598;2022-12-29T15:03:30;8.70;99.90
51853;DHT22;37894;53.172;6.598;2022-12-29T15:06:08;8.80;99.90
51853;DHT22;37894;53.172;6.598;2022-12-29T15:08:46;8.80;99.90
51853;DHT22;37894;53.172;6.598;2022-12-29T15:11:24;9.40;99.90
51853;DHT22;37894;53.172;6.598;2022-12-29T15:13:52;8.60;99.90
51853;DHT22;37894;53.172;6.598;2022-12-29T15:16:31;8.40;99.90
51853;DHT22;37894;53.172;6.598;2022-12-29T15:18:58;8.40;99.90
51853;DHT22;37894;53.172;6.598;2022-12-29T15:21:35;8.40;99.90
51853;DHT22;37894;53.172;6.598;2022-12-29T15:24:02;8.30;99.90
51853;DHT22;37894;53.172;6.598;2022-12-29T15:27:02;8.20;99.90
51853;DHT22;37894;53.172;6.598;2022-12-29T15:29:37;8.20;99.90
51853;DHT22;37894;53.172;6.598;2022-12-29T15:32:20;8.10;99.90
51853;DHT22;37894;53.172;6.598;2022-12-29T15:34:50;8.20;99.90
51853;DHT22;37894;53.172;6.598;2022-12-29T15:37:27;8.20;99.90
51853;DHT22;37894;53.172;6.598;2022-12-29T15:39:55;8.90;99.90
51853;DHT22;37894;53.172;6.598;2022-12-29T15:44:46;8.30;99.90
51853;DHT22;37894;53.172;6.598;2022-12-29T15:47:27;8.20;99.90
51853;DHT22;37894;53.172;6.598;2022-12-29T15:50:06;8.30;99.90
51853;DHT22;37894;53.172;6.598;2022-12-29T15:52:35;9.20;99.90
51853;DHT22;37894;53.172;6.598;2022-12-29T15:57:37;8.20;99.90
51853;DHT22;37894;53.172;6.598;2022-12-29T16:00:04;7.30;99.90
51853;DHT22;37894;53.172;6.598;2022-12-29T16:02:46;7.80;99.90
51853;DHT22;37894;53.172;6.598;2022-12-29T16:05:17;7.90;99.90
51853;DHT22;37894;53.172;6.598;2022-12-29T16:07:57;8.10;99.90
51853;DHT22;37894;53.172;6.598;2022-12-29T16:10:35;7.60;99.90
51853;DHT22;37894;53.172;6.598;2022-12-29T16:13:45;8.10;99.90
51853;DHT22;37894;53.172;6.598;2022-12-29T16:15:59;8.10;99.90
51853;DHT22;37894;53.172;6.598;2022-12-29T16:18:32;8.30;99.90
51853;DHT22;37894;53.172;6.598;2022-12-29T16:21:00;7.90;99.90
51853;DHT22;37894;53.172;6.598;2022-12-29T16:23:28;7.40;99.90
51853;DHT22;37894;53.172;6.598;2022-12-29T16:25:55;8.20;99.90
51853;DHT22;37894;53.172;6.598;2022-12-29T16:28:43;8.30;99.90
51853;DHT22;37894;53.172;6.598;2022-12-29T16:31:33;7.90;99.90
51853;DHT22;37894;53.172;6.598;2022-12-29T16:34:21;8.10;99.90
51853;DHT22;37894;53.172;6.598;2022-12-29T16:36:55;7.00;99.90
51853;DHT22;37894;53.172;6.598;2022-12-29T16:41:57;7.10;99.90
51853;DHT22;37894;53.172;6.598;2022-12-29T16:44:30;5.90;99.90
51853;DHT22;37894;53.172;6.598;2022-12-29T16:47:18;6.90;99.90
51853;DHT22;37894;53.172;6.598;2022-12-29T16:49:49;6.50;99.90
51853;DHT22;37894;53.172;6.598;2022-12-29T16:52:28;6.80;99.90
51853;DHT22;37894;53.172;6.598;2022-12-29T16:54:58;7.00;99.90
51853;DHT22;37894;53.172;6.598;2022-12-29T16:57:35;7.00;99.90
51853;DHT22;37894;53.172;6.598;2022-12-29T17:00:16;6.10;99.90
51853;DHT22;37894;53.172;6.598;2022-12-29T17:02:42;6.70;99.90
51853;DHT22;37894;53.172;6.598;2022-12-29T17:05:17;6.80;99.90
51853;DHT22;37894;53.172;6.598;2022-12-29T17:07:43;7.50;99.90
51853;DHT22;37894;53.172;6.598;2022-12-29T17:10:09;6.80;99.90
51853;DHT22;37894;53.172;6.598;2022-12-29T17:12:36;6.70;99.90
51853;DHT22;37894;53.172;6.598;2022-12-29T17:15:09;6.60;99.90
51853;DHT22;37894;53.172;6.598;2022-12-29T17:17:49;6.50;99.90
51853;DHT22;37894;53.172;6.598;2022-12-29T17:25:12;6.50;99.90
51853;DHT22;37894;53.172;6.598;2022-12-29T17:27:41;6.40;99.90
51853;DHT22;37894;53.172;6.598;2022-12-29T17:30:13;6.60;99.90
51853;DHT22;37894;53.172;6.598;2022-12-29T17:32:40;6.60;99.90
51853;DHT22;37894;53.172;6.598;2022-12-29T17:35:16;7.00;99.90
51853;DHT22;37894;53.172;6.598;2022-12-29T17:37:43;6.50;99.90
51853;DHT22;37894;53.172;6.598;2022-12-29T17:40:20;8.00;99.90
51853;DHT22;37894;53.172;6.598;2022-12-29T17:42:53;7.30;99.90
51853;DHT22;37894;53.172;6.598;2022-12-29T17:45:19;6.90;99.90
51853;DHT22;37894;53.172;6.598;2022-12-29T17:47:46;7.10;99.90
51853;DHT22;37894;53.172;6.598;2022-12-29T17:50:17;7.90;99.90
51853;DHT22;37894;53.172;6.598;2022-12-29T17:52:47;6.70;99.90
51853;DHT22;37894;53.172;6.598;2022-12-29T17:55:16;7.20;99.90
51853;DHT22;37894;53.172;6.598;2022-12-29T17:57:42;7.00;99.90
51853;DHT22;37894;53.172;6.598;2022-12-29T18:00:17;7.10;99.90
51853;DHT22;37894;53.172;6.598;2022-12-29T18:02:43;7.20;99.90
51853;DHT22;37894;53.172;6.598;2022-12-29T18:07:42;7.20;99.90
51853;DHT22;37894;53.172;6.598;2022-12-29T18:10:08;7.40;99.90
51853;DHT22;37894;53.172;6.598;2022-12-29T18:12:39;7.20;99.90
51853;DHT22;37894;53.172;6.598;2022-12-29T18:15:06;6.40;99.90
51853;DHT22;37894;53.172;6.598;2022-12-29T18:17:33;7.10;99.90
51853;DHT22;37894;53.172;6.598;2022-12-29T18:19:58;6.80;99.90
51853;DHT22;37894;53.172;6.598;2022-12-29T18:22:25;8.00;99.90
51853;DHT22;37894;53.172;6.598;2022-12-29T18:24:53;7.10;99.90
51853;DHT22;37894;53.172;6.598;2022-12-29T18:29:47;7.30;99.90
51853;DHT22;37894;53.172;6.598;2022-12-29T18:32:14;6.90;99.90
51853;DHT22;37894;53.172;6.598;2022-12-29T18:34:40;7.30;99.90
51853;DHT22;37894;53.172;6.598;2022-12-29T18:37:07;7.00;99.90
51853;DHT22;37894;53.172;6.598;2022-12-29T18:39:33;7.20;99.90
51853;DHT22;37894;53.172;6.598;2022-12-29T18:44:25;7.30;99.90
51853;DHT22;37894;53.172;6.598;2022-12-29T18:46:51;7.30;99.90
51853;DHT22;37894;53.172;6.598;2022-12-29T18:49:19;7.10;99.90